createdAt,value
2023-05-21T00:00:55.520Z,95454.34
2023-05-21T00:01:57.034Z,95451.94
2023-05-21T00:02:59.276Z,95455.00
2023-05-21T00:04:01.151Z,95451.72
2023-05-21T00:05:02.796Z,95451.81
2023-05-21T00:06:04.575Z,95448.13
2023-05-21T00:07:06.920Z,95443.03
2023-05-21T00:08:08.683Z,95447.81
2023-05-21T00:09:12.760Z,95447.31
2023-05-21T00:10:14.466Z,95441.88
2023-05-21T00:11:16.145Z,95435.75
2023-05-21T00:12:17.770Z,95447.09
2023-05-21T00:13:19.484Z,95445.78
2023-05-21T00:14:21.120Z,95446.38
2023-05-21T00:15:22.740Z,95443.91
2023-05-21T00:16:25.390Z,95442.47
2023-05-21T00:17:28.540Z,95436.47
2023-05-21T00:18:32.248Z,95431.09
2023-05-21T00:19:33.992Z,95432.84
2023-05-21T00:20:35.688Z,95444.97
2023-05-21T00:21:38.206Z,95438.75
2023-05-21T00:22:40.372Z,95443.13
2023-05-21T00:23:42.760Z,95442.22
2023-05-21T00:24:47.187Z,95440.28
2023-05-21T00:25:50.427Z,95433.53
2023-05-21T00:26:52.124Z,95428.69
2023-05-21T00:27:55.087Z,95431.50
2023-05-21T00:28:56.857Z,95438.16
2023-05-21T00:29:58.549Z,95434.94
2023-05-21T00:31:00.218Z,95430.31
2023-05-21T00:32:01.964Z,95428.31
2023-05-21T00:33:04.132Z,95443.38
2023-05-21T00:34:05.913Z,95436.56
2023-05-21T00:35:08.226Z,95439.25
2023-05-21T00:36:10.368Z,95445.00
2023-05-21T00:37:11.952Z,95439.31
2023-05-21T00:38:14.349Z,95425.41
2023-05-21T00:39:16.098Z,95437.94
2023-05-21T00:40:18.199Z,95434.72
2023-05-21T00:41:19.943Z,95439.34
2023-05-21T00:42:27.272Z,95436.00
2023-05-21T00:43:28.998Z,95433.59
2023-05-21T00:44:34.197Z,95432.72
2023-05-21T00:45:37.337Z,95428.84
2023-05-21T00:46:39.795Z,95434.03
2023-05-21T00:47:42.276Z,95431.91
2023-05-21T00:48:45.204Z,95443.69
2023-05-21T00:49:48.258Z,95421.84
2023-05-21T00:50:50.372Z,95436.59
2023-05-21T00:51:53.013Z,95428.72
2023-05-21T00:52:54.700Z,95425.72
2023-05-21T00:53:56.972Z,95420.69
2023-05-21T00:54:58.805Z,95425.69
2023-05-21T00:56:01.314Z,95434.19
2023-05-21T00:57:04.006Z,95430.91
2023-05-21T00:58:06.567Z,95433.13
2023-05-21T00:59:08.450Z,95429.88
2023-05-21T01:00:12.141Z,95425.81
2023-05-21T01:01:16.049Z,95432.81
2023-05-21T01:02:20.781Z,95434.25
2023-05-21T01:03:23.210Z,95430.84
2023-05-21T01:04:24.770Z,95431.59
2023-05-21T01:05:29.661Z,95428.41
2023-05-21T01:06:34.693Z,95425.94
2023-05-21T01:07:39.012Z,95424.84
2023-05-21T01:08:41.878Z,95428.31
2023-05-21T01:09:43.628Z,95428.75
2023-05-21T01:10:45.255Z,95418.31
2023-05-21T01:11:50.101Z,95425.69
2023-05-21T01:12:52.669Z,95426.78
2023-05-21T01:13:54.285Z,95420.75
2023-05-21T01:14:56.234Z,95418.00
2023-05-21T01:15:59.165Z,95422.69
2023-05-21T01:17:02.218Z,95422.69
2023-05-21T01:18:04.252Z,95415.16
2023-05-21T01:19:07.115Z,95418.72
2023-05-21T01:20:11.969Z,95425.66
2023-05-21T01:21:17.289Z,95419.25
2023-05-21T01:22:21.730Z,95409.47
2023-05-21T01:23:23.630Z,95410.00
2023-05-21T01:24:25.452Z,95410.19
2023-05-21T01:25:27.108Z,95412.06
2023-05-21T01:26:30.393Z,95414.78
2023-05-21T01:27:32.012Z,95417.88
2023-05-21T01:28:34.569Z,95415.22
2023-05-21T01:29:36.289Z,95419.75
2023-05-21T01:30:39.762Z,95419.75
2023-05-21T01:32:10.073Z,95414.44
2023-05-21T01:33:20.300Z,95416.09
2023-05-21T01:34:26.743Z,95417.34
2023-05-21T01:35:32.923Z,95412.84
2023-05-21T01:36:40.922Z,95411.78
2023-05-21T01:37:55.202Z,95408.97
2023-05-21T01:39:14.836Z,95412.06
2023-05-21T01:40:35.419Z,95414.72
2023-05-21T01:41:38.776Z,95413.13
2023-05-21T01:42:44.043Z,95411.47
2023-05-21T01:43:46.567Z,95421.97
2023-05-21T01:44:48.651Z,95421.09
2023-05-21T01:45:54.728Z,95416.31
2023-05-21T01:46:57.031Z,95419.41
2023-05-21T01:47:58.716Z,95414.72
2023-05-21T01:49:00.644Z,95413.84
2023-05-21T01:50:03.764Z,95416.16
2023-05-21T01:51:05.945Z,95411.81
2023-05-21T01:52:07.517Z,95409.31
2023-05-21T01:53:09.109Z,95412.75
2023-05-21T01:54:10.738Z,95411.25
2023-05-21T01:55:13.543Z,95414.47
2023-05-21T01:56:15.957Z,95412.22
2023-05-21T01:57:18.557Z,95409.13
2023-05-21T01:58:21.168Z,95414.09
2023-05-21T01:59:22.848Z,95402.94
2023-05-21T02:00:28.249Z,95394.72
2023-05-21T02:01:30.510Z,95402.50
2023-05-21T02:02:32.399Z,95403.22
2023-05-21T02:03:35.011Z,95404.53
2023-05-21T02:04:37.331Z,95408.06
2023-05-21T02:05:39.036Z,95407.81
2023-05-21T02:06:41.768Z,95409.94
2023-05-21T02:07:45.279Z,95411.44
2023-05-21T02:08:48.449Z,95407.19
2023-05-21T02:09:50.071Z,95406.91
2023-05-21T02:10:52.374Z,95408.06
2023-05-21T02:11:55.455Z,95402.47
2023-05-21T02:12:57.082Z,95402.38
2023-05-21T02:13:58.679Z,95400.97
2023-05-21T02:15:00.276Z,95407.53
2023-05-21T02:16:02.318Z,95410.28
2023-05-21T02:17:04.097Z,95410.19
2023-05-21T02:18:05.854Z,95408.66
2023-05-21T02:19:10.407Z,95407.97
2023-05-21T02:20:13.555Z,95405.84
2023-05-21T02:21:15.580Z,95411.25
2023-05-21T02:22:17.237Z,95404.44
2023-05-21T02:23:18.817Z,95407.66
2023-05-21T02:24:22.247Z,95405.69
2023-05-21T02:25:24.101Z,95411.78
2023-05-21T02:26:25.794Z,95416.91
2023-05-21T02:27:29.018Z,95409.06
2023-05-21T02:28:30.839Z,95416.19
2023-05-21T02:29:32.873Z,95406.28
2023-05-21T02:30:34.455Z,95409.47
2023-05-21T02:31:36.048Z,95407.97
2023-05-21T02:32:39.746Z,95412.94
2023-05-21T02:33:42.065Z,95411.69
2023-05-21T02:34:45.068Z,95406.91
2023-05-21T02:35:46.848Z,95408.50
2023-05-21T02:36:48.501Z,95411.00
2023-05-21T02:37:50.125Z,95397.09
2023-05-21T02:38:51.742Z,95396.91
2023-05-21T02:39:56.611Z,95394.47
2023-05-21T02:40:58.866Z,95399.41
2023-05-21T02:42:00.718Z,95398.59
2023-05-21T02:43:02.357Z,95401.34
2023-05-21T02:44:06.199Z,95397.81
2023-05-21T02:45:09.263Z,95398.97
2023-05-21T02:46:11.546Z,95396.47
2023-05-21T02:47:13.181Z,95398.50
2023-05-21T02:48:14.946Z,95394.19
2023-05-21T02:49:17.042Z,95396.47
2023-05-21T02:50:22.745Z,95398.00
2023-05-21T02:51:33.475Z,95392.56
2023-05-21T02:52:35.482Z,95398.41
2023-05-21T02:53:37.349Z,95397.88
2023-05-21T02:54:39.354Z,95398.97
2023-05-21T02:55:42.053Z,95401.97
2023-05-21T02:56:43.729Z,95393.22
2023-05-21T02:57:45.574Z,95395.59
2023-05-21T02:58:47.256Z,95399.59
2023-05-21T02:59:48.908Z,95399.75
2023-05-21T03:00:50.805Z,95393.41
2023-05-21T03:01:52.573Z,95391.53
2023-05-21T03:02:54.371Z,95394.00
2023-05-21T03:03:56.207Z,95405.31
2023-05-21T03:04:58.978Z,95389.84
2023-05-21T03:06:00.481Z,95399.94
2023-05-21T03:07:02.293Z,95389.22
2023-05-21T03:08:03.981Z,95397.00
2023-05-21T03:09:06.001Z,95393.91
2023-05-21T03:10:07.786Z,95397.00
2023-05-21T03:11:09.976Z,95389.97
2023-05-21T03:12:11.751Z,95394.09
2023-05-21T03:13:13.482Z,95393.38
2023-05-21T03:14:16.242Z,95396.13
2023-05-21T03:15:18.182Z,95395.25
2023-05-21T03:16:19.911Z,95393.31
2023-05-21T03:17:22.236Z,95393.91
2023-05-21T03:18:24.230Z,95391.63
2023-05-21T03:19:26.443Z,95390.38
2023-05-21T03:20:28.916Z,95388.72
2023-05-21T03:21:32.204Z,95389.16
2023-05-21T03:22:33.834Z,95391.53
2023-05-21T03:23:35.575Z,95396.56
2023-05-21T03:24:41.374Z,95389.59
2023-05-21T03:25:44.084Z,95394.34
2023-05-21T03:26:48.169Z,95394.09
2023-05-21T03:27:49.968Z,95388.44
2023-05-21T03:29:21.105Z,95388.16
2023-05-21T03:30:22.897Z,95386.94
2023-05-21T03:31:42.808Z,95388.97
2023-05-21T03:32:47.175Z,95388.78
2023-05-21T03:33:48.842Z,95387.13
2023-05-21T03:34:56.252Z,95388.88
2023-05-21T03:35:58.981Z,95383.28
2023-05-21T03:37:03.236Z,95387.47
2023-05-21T03:38:06.180Z,95385.34
2023-05-21T03:39:07.805Z,95389.94
2023-05-21T03:40:10.694Z,95400.41
2023-05-21T03:41:13.459Z,95383.66
2023-05-21T03:42:17.210Z,95384.72
2023-05-21T03:43:26.387Z,95387.28
2023-05-21T03:44:28.439Z,95392.34
2023-05-21T03:45:35.816Z,95383.22
2023-05-21T03:46:46.619Z,95386.31
2023-05-21T03:47:55.390Z,95393.41
2023-05-21T03:48:58.266Z,95385.78
2023-05-21T03:50:01.705Z,95395.41
2023-05-21T03:51:04.050Z,95393.72
2023-05-21T03:52:06.133Z,95393.19
2023-05-21T03:53:07.908Z,95393.19
2023-05-21T03:54:09.539Z,95397.00
2023-05-21T03:55:12.523Z,95395.41
2023-05-21T03:56:14.204Z,95398.47
2023-05-21T03:57:16.680Z,95393.00
2023-05-21T03:58:23.194Z,95396.19
2023-05-21T03:59:24.886Z,95394.16
2023-05-21T04:00:26.853Z,95398.81
2023-05-21T04:01:28.767Z,95398.13
2023-05-21T04:02:32.398Z,95393.34
2023-05-21T04:03:35.953Z,95400.44
2023-05-21T04:04:39.668Z,95399.28
2023-05-21T04:05:44.733Z,95408.31
2023-05-21T04:06:48.274Z,95408.94
2023-05-21T04:07:50.067Z,95406.47
2023-05-21T04:08:52.249Z,95408.41
2023-05-21T04:09:53.880Z,95405.25
2023-05-21T04:10:55.615Z,95411.81
2023-05-21T04:11:57.801Z,95405.69
2023-05-21T04:12:59.402Z,95406.84
2023-05-21T04:14:01.620Z,95399.41
2023-05-21T04:15:04.571Z,95401.72
2023-05-21T04:16:09.100Z,95408.72
2023-05-21T04:17:12.732Z,95407.44
2023-05-21T04:18:16.611Z,95397.38
2023-05-21T04:19:18.408Z,95405.50
2023-05-21T04:20:20.719Z,95407.38
2023-05-21T04:21:22.434Z,95410.47
2023-05-21T04:22:26.606Z,95419.75
2023-05-21T04:23:28.390Z,95414.28
2023-05-21T04:24:31.842Z,95422.88
2023-05-21T04:25:45.328Z,95419.41
2023-05-21T04:26:48.092Z,95418.97
2023-05-21T04:27:50.545Z,95418.09
2023-05-21T04:28:54.023Z,95414.81
2023-05-21T04:29:55.780Z,95418.72
2023-05-21T04:30:59.059Z,95417.47
2023-05-21T04:32:00.777Z,95418.25
2023-05-21T04:33:03.162Z,95421.56
2023-05-21T04:34:05.118Z,95419.22
2023-05-21T04:35:07.262Z,95414.53
2023-05-21T04:36:10.552Z,95419.22
2023-05-21T04:37:12.298Z,95417.53
2023-05-21T04:38:14.111Z,95414.88
2023-05-21T04:39:16.885Z,95416.09
2023-05-21T04:40:18.635Z,95414.44
2023-05-21T04:41:21.263Z,95416.50
2023-05-21T04:42:26.209Z,95420.19
2023-05-21T04:43:30.399Z,95422.94
2023-05-21T04:44:33.731Z,95420.69
2023-05-21T04:45:36.009Z,95420.25
2023-05-21T04:46:39.676Z,95419.56
2023-05-21T04:47:43.641Z,95420.69
2023-05-21T04:48:46.760Z,95413.78
2023-05-21T04:49:48.410Z,95424.75
2023-05-21T04:50:50.854Z,95426.59
2023-05-21T04:51:52.402Z,95423.06
2023-05-21T04:52:55.081Z,95416.16
2023-05-21T04:53:58.084Z,95419.84
2023-05-21T04:54:59.698Z,95425.56
2023-05-21T04:56:03.166Z,95421.16
2023-05-21T04:57:06.427Z,95418.41
2023-05-21T04:58:12.381Z,95427.44
2023-05-21T04:59:14.960Z,95424.03
2023-05-21T05:00:17.445Z,95426.44
2023-05-21T05:01:23.739Z,95427.38
2023-05-21T05:02:25.507Z,95422.97
2023-05-21T05:03:27.281Z,95426.56
2023-05-21T05:04:28.989Z,95425.72
2023-05-21T05:05:30.991Z,95426.16
2023-05-21T05:06:32.745Z,95429.56
2023-05-21T05:07:34.394Z,95426.81
2023-05-21T05:08:36.243Z,95435.00
2023-05-21T05:09:38.632Z,95431.41
2023-05-21T05:10:40.282Z,95429.59
2023-05-21T05:11:41.916Z,95423.16
2023-05-21T05:12:43.597Z,95421.22
2023-05-21T05:13:45.199Z,95426.91
2023-05-21T05:14:46.930Z,95428.09
2023-05-21T05:15:50.243Z,95433.25
2023-05-21T05:16:54.348Z,95428.00
2023-05-21T05:17:56.671Z,95424.31
2023-05-21T05:18:58.453Z,95425.38
2023-05-21T05:20:00.990Z,95421.91
2023-05-21T05:21:03.620Z,95418.50
2023-05-21T05:22:05.450Z,95430.31
2023-05-21T05:23:07.578Z,95432.81
2023-05-21T05:24:09.171Z,95431.00
2023-05-21T05:25:10.883Z,95430.94
2023-05-21T05:26:12.682Z,95427.47
2023-05-21T05:27:14.884Z,95427.09
2023-05-21T05:28:16.650Z,95424.91
2023-05-21T05:29:18.330Z,95422.75
2023-05-21T05:30:20.753Z,95427.63
2023-05-21T05:31:22.323Z,95431.22
2023-05-21T05:32:24.063Z,95425.97
2023-05-21T05:33:26.011Z,95434.97
2023-05-21T05:34:28.120Z,95432.75
2023-05-21T05:35:29.809Z,95436.56
2023-05-21T05:36:31.603Z,95435.44
2023-05-21T05:37:33.646Z,95433.56
2023-05-21T05:38:36.242Z,95435.78
2023-05-21T05:39:38.117Z,95431.22
2023-05-21T05:40:39.888Z,95439.81
2023-05-21T05:41:41.526Z,95433.94
2023-05-21T05:42:43.260Z,95435.03
2023-05-21T05:43:49.045Z,95432.38
2023-05-21T05:44:51.528Z,95433.41
2023-05-21T05:45:53.196Z,95431.59
2023-05-21T05:46:54.878Z,95424.19
2023-05-21T05:47:56.604Z,95433.94
2023-05-21T05:48:58.257Z,95425.84
2023-05-21T05:49:59.894Z,95432.16
2023-05-21T05:51:01.829Z,95427.44
2023-05-21T05:52:03.678Z,95430.28
2023-05-21T05:53:05.536Z,95427.06
2023-05-21T05:54:07.156Z,95432.78
2023-05-21T05:55:11.901Z,95438.72
2023-05-21T05:56:13.524Z,95431.88
2023-05-21T05:57:15.872Z,95434.59
2023-05-21T05:58:19.512Z,95433.59
2023-05-21T05:59:33.768Z,95435.31
2023-05-21T06:00:36.689Z,95435.50
2023-05-21T06:01:38.898Z,95434.47
2023-05-21T06:02:41.252Z,95430.63
2023-05-21T06:03:44.254Z,95436.16
2023-05-21T06:04:54.702Z,95436.78
2023-05-21T06:05:56.385Z,95443.50
2023-05-21T06:06:59.920Z,95434.25
2023-05-21T06:08:01.788Z,95445.66
2023-05-21T06:09:03.492Z,95439.34
2023-05-21T06:10:08.581Z,95440.56
2023-05-21T06:11:10.969Z,95436.16
2023-05-21T06:12:15.907Z,95441.88
2023-05-21T06:13:17.597Z,95438.31
2023-05-21T06:14:19.887Z,95439.84
2023-05-21T06:15:21.572Z,95438.75
2023-05-21T06:16:23.252Z,95438.19
2023-05-21T06:17:25.044Z,95437.38
2023-05-21T06:18:27.794Z,95440.25
2023-05-21T06:19:29.473Z,95436.88
2023-05-21T06:20:31.166Z,95442.34
2023-05-21T06:21:33.698Z,95439.53
2023-05-21T06:22:37.007Z,95441.47
2023-05-21T06:23:40.097Z,95437.25
2023-05-21T06:24:42.005Z,95438.16
2023-05-21T06:25:44.481Z,95444.59
2023-05-21T06:26:46.426Z,95441.09
2023-05-21T06:27:48.073Z,95443.00
2023-05-21T06:28:55.405Z,95439.69
2023-05-21T06:29:57.369Z,95438.91
2023-05-21T06:30:59.016Z,95442.03
2023-05-21T06:32:01.747Z,95436.31
2023-05-21T06:33:03.664Z,95438.00
2023-05-21T06:34:05.721Z,95440.06
2023-05-21T06:35:08.264Z,95440.06
2023-05-21T06:36:10.041Z,95435.56
2023-05-21T06:37:11.697Z,95440.16
2023-05-21T06:38:13.356Z,95442.03
2023-05-21T06:39:15.057Z,95441.94
2023-05-21T06:40:16.958Z,95438.38
2023-05-21T06:41:18.616Z,95442.16
2023-05-21T06:42:27.006Z,95445.38
2023-05-21T06:43:48.701Z,95450.50
2023-05-21T06:45:09.314Z,95439.22
2023-05-21T06:46:17.621Z,95442.13
2023-05-21T06:47:20.919Z,95437.38
2023-05-21T06:48:22.584Z,95443.72
2023-05-21T06:49:24.428Z,95437.44
2023-05-21T06:50:26.397Z,95430.34
2023-05-21T06:51:28.439Z,95441.00
2023-05-21T06:52:31.760Z,95448.13
2023-05-21T06:53:33.583Z,95447.34
2023-05-21T06:54:35.524Z,95443.38
2023-05-21T06:55:37.440Z,95444.88
2023-05-21T06:57:08.943Z,95444.53
2023-05-21T06:58:11.468Z,95444.53
2023-05-21T06:59:13.149Z,95447.69
2023-05-21T07:00:16.308Z,95445.31
2023-05-21T07:01:18.051Z,95444.13
2023-05-21T07:02:20.267Z,95448.81
2023-05-21T07:03:22.860Z,95446.09
2023-05-21T07:04:24.556Z,95446.06
2023-05-21T07:05:26.181Z,95449.28
2023-05-21T07:06:29.548Z,95444.16
2023-05-21T07:07:34.765Z,95444.16
2023-05-21T07:08:36.489Z,95437.81
2023-05-21T07:09:38.417Z,95440.22
2023-05-21T07:10:40.693Z,95441.38
2023-05-21T07:11:42.377Z,95448.09
2023-05-21T07:12:44.739Z,95450.38
2023-05-21T07:13:46.364Z,95444.88
2023-05-21T07:14:48.233Z,95451.69
2023-05-21T07:15:50.016Z,95446.91
2023-05-21T07:16:51.722Z,95445.31
2023-05-21T07:17:53.398Z,95446.56
2023-05-21T07:18:55.365Z,95452.09
2023-05-21T07:19:57.034Z,95448.53
2023-05-21T07:20:59.527Z,95456.06
2023-05-21T07:22:01.740Z,95449.72
2023-05-21T07:23:03.454Z,95450.91
2023-05-21T07:24:05.149Z,95445.00
2023-05-21T07:25:07.512Z,95452.13
2023-05-21T07:26:10.192Z,95454.06
2023-05-21T07:27:24.879Z,95451.31
2023-05-21T07:28:27.848Z,95452.81
2023-05-21T07:29:29.530Z,95458.78
2023-05-21T07:30:31.231Z,95451.63
2023-05-21T07:31:33.395Z,95445.34
2023-05-21T07:32:35.512Z,95454.47
2023-05-21T07:33:37.245Z,95447.34
2023-05-21T07:34:38.855Z,95455.66
2023-05-21T07:35:40.977Z,95446.56
2023-05-21T07:36:42.661Z,95450.50
2023-05-21T07:37:44.380Z,95452.50
2023-05-21T07:38:46.151Z,95451.31
2023-05-21T07:39:48.078Z,95447.69
2023-05-21T07:40:49.754Z,95448.91
2023-05-21T07:41:51.383Z,95450.81
2023-05-21T07:42:53.100Z,95447.66
2023-05-21T07:43:57.161Z,95451.19
2023-05-21T07:44:58.862Z,95446.78
2023-05-21T07:46:02.014Z,95451.63
2023-05-21T07:47:04.855Z,95447.19
2023-05-21T07:48:06.935Z,95442.47
2023-05-21T07:49:16.485Z,95451.50
2023-05-21T07:50:19.356Z,95437.66
2023-05-21T07:51:21.057Z,95443.53
2023-05-21T07:52:22.807Z,95451.47
2023-05-21T07:53:24.585Z,95450.19
2023-05-21T07:54:26.439Z,95456.06
2023-05-21T07:55:28.336Z,95452.53
2023-05-21T07:56:30.194Z,95451.03
2023-05-21T07:57:31.973Z,95454.44
2023-05-21T07:58:39.409Z,95454.63
2023-05-21T07:59:41.040Z,95455.13
2023-05-21T08:00:44.947Z,95448.38
2023-05-21T08:01:46.887Z,95457.03
2023-05-21T08:02:48.631Z,95459.47
2023-05-21T08:03:50.956Z,95464.59
2023-05-21T08:04:52.853Z,95462.84
2023-05-21T08:05:54.657Z,95463.72
2023-05-21T08:06:56.795Z,95462.94
2023-05-21T08:07:58.427Z,95464.09
2023-05-21T08:09:03.793Z,95455.88
2023-05-21T08:10:06.407Z,95459.00
2023-05-21T08:11:07.951Z,95464.06
2023-05-21T08:12:10.031Z,95455.47
2023-05-21T08:13:12.848Z,95462.41
2023-05-21T08:14:14.621Z,95459.94
2023-05-21T08:15:16.589Z,95469.72
2023-05-21T08:16:21.359Z,95466.94
2023-05-21T08:17:23.106Z,95465.22
2023-05-21T08:18:25.416Z,95465.84
2023-05-21T08:19:29.292Z,95469.03
2023-05-21T08:20:32.622Z,95466.88
2023-05-21T08:21:35.518Z,95463.47
2023-05-21T08:22:37.174Z,95464.63
2023-05-21T08:23:38.821Z,95462.94
2023-05-21T08:24:41.342Z,95453.69
2023-05-21T08:25:43.057Z,95460.28
2023-05-21T08:26:47.447Z,95461.34
2023-05-21T08:27:51.603Z,95452.78
2023-05-21T08:28:54.230Z,95459.81
2023-05-21T08:29:56.122Z,95461.69
2023-05-21T08:30:57.930Z,95465.84
2023-05-21T08:31:59.941Z,95465.22
2023-05-21T08:33:02.502Z,95462.47
2023-05-21T08:34:06.299Z,95473.34
2023-05-21T08:35:18.379Z,95473.25
2023-05-21T08:36:38.730Z,95476.16
2023-05-21T08:37:50.239Z,95470.75
2023-05-21T08:39:17.706Z,95474.78
2023-05-21T08:40:19.379Z,95465.47
2023-05-21T08:41:24.483Z,95469.53
2023-05-21T08:42:42.633Z,95473.03
2023-05-21T08:43:50.410Z,95472.84
2023-05-21T08:44:55.093Z,95473.06
2023-05-21T08:45:59.196Z,95468.94
2023-05-21T08:47:06.742Z,95474.72
2023-05-21T08:48:11.449Z,95474.72
2023-05-21T08:49:17.556Z,95477.72
2023-05-21T08:50:19.628Z,95480.38
2023-05-21T08:51:22.589Z,95475.31
2023-05-21T08:52:26.947Z,95482.22
2023-05-21T08:53:29.314Z,95481.31
2023-05-21T08:54:32.692Z,95480.72
2023-05-21T08:55:35.359Z,95480.19
2023-05-21T08:56:37.015Z,95485.91
2023-05-21T08:57:43.389Z,95481.03
2023-05-21T08:58:46.889Z,95483.97
2023-05-21T08:59:51.194Z,95477.47
2023-05-21T09:00:59.021Z,95476.78
2023-05-21T09:02:03.601Z,95488.34
2023-05-21T09:03:12.418Z,95481.13
2023-05-21T09:04:21.387Z,95480.00
2023-05-21T09:05:27.159Z,95491.19
2023-05-21T09:06:29.308Z,95483.13
2023-05-21T09:07:41.395Z,95489.34
2023-05-21T09:09:17.096Z,95482.84
2023-05-21T09:10:24.728Z,95482.06
2023-05-21T09:11:26.790Z,95481.72
2023-05-21T09:12:32.273Z,95487.28
2023-05-21T09:13:38.834Z,95473.47
2023-05-21T09:14:46.165Z,95481.00
2023-05-21T09:15:51.695Z,95477.31
2023-05-21T09:16:54.914Z,95478.56
2023-05-21T09:17:57.547Z,95477.56
2023-05-21T09:19:23.016Z,95481.88
2023-05-21T09:20:26.600Z,95488.84
2023-05-21T09:21:33.267Z,95487.00
2023-05-21T09:22:41.811Z,95480.16
2023-05-21T09:23:44.620Z,95477.75
2023-05-21T09:24:47.925Z,95470.72
2023-05-21T09:25:51.883Z,95471.94
2023-05-21T09:27:03.298Z,95479.69
2023-05-21T09:28:15.409Z,95484.31
2023-05-21T09:29:17.121Z,95481.28
2023-05-21T09:30:21.861Z,95473.34
2023-05-21T09:31:29.443Z,95474.25
2023-05-21T09:32:31.310Z,95475.00
2023-05-21T09:33:33.141Z,95470.06
2023-05-21T09:34:36.784Z,95477.09
2023-05-21T09:35:45.007Z,95472.13
2023-05-21T09:36:48.592Z,95475.34
2023-05-21T09:37:52.855Z,95468.63
2023-05-21T09:38:55.729Z,95475.13
2023-05-21T09:39:57.340Z,95475.47
2023-05-21T09:40:59.677Z,95475.53
2023-05-21T09:42:02.476Z,95478.06
2023-05-21T09:43:05.113Z,95476.78
2023-05-21T09:44:06.835Z,95474.31
2023-05-21T09:45:11.116Z,95477.13
2023-05-21T09:46:13.081Z,95477.75
2023-05-21T09:47:19.664Z,95479.78
2023-05-21T09:48:37.798Z,95467.09
2023-05-21T09:49:44.045Z,95469.00
2023-05-21T09:50:45.893Z,95471.63
2023-05-21T09:51:47.523Z,95476.03
2023-05-21T09:52:51.047Z,95468.34
2023-05-21T09:53:58.605Z,95469.28
2023-05-21T09:55:00.227Z,95480.56
2023-05-21T09:56:04.117Z,95473.34
2023-05-21T09:57:06.023Z,95474.00
2023-05-21T09:58:08.300Z,95475.91
2023-05-21T09:59:09.934Z,95462.38
2023-05-21T10:00:18.615Z,95461.59
2023-05-21T10:01:21.307Z,95464.78
2023-05-21T10:02:24.620Z,95468.56
2023-05-21T10:03:28.397Z,95461.97
2023-05-21T10:04:31.586Z,95457.91
2023-05-21T10:05:33.629Z,95455.88
2023-05-21T10:06:38.079Z,95461.97
2023-05-21T10:07:42.372Z,95470.53
2023-05-21T10:08:45.501Z,95455.09
2023-05-21T10:09:50.694Z,95452.56
2023-05-21T10:10:52.336Z,95463.59
2023-05-21T10:11:54.492Z,95459.19
2023-05-21T10:12:59.893Z,95458.94
2023-05-21T10:14:06.185Z,95459.72
2023-05-21T10:15:09.501Z,95461.22
2023-05-21T10:16:11.539Z,95449.84
2023-05-21T10:17:13.757Z,95460.66
2023-05-21T10:18:16.432Z,95456.31
2023-05-21T10:19:19.038Z,95448.22
2023-05-21T10:20:21.205Z,95456.31
2023-05-21T10:21:23.516Z,95451.09
2023-05-21T10:22:25.629Z,95461.03
2023-05-21T10:23:27.364Z,95458.06
2023-05-21T10:24:29.028Z,95448.38
2023-05-21T10:25:31.486Z,95455.34
2023-05-21T10:26:33.320Z,95441.94
2023-05-21T10:27:36.532Z,95453.91
2023-05-21T10:28:38.449Z,95449.53
2023-05-21T10:29:41.789Z,95448.22
2023-05-21T10:30:43.570Z,95457.16
2023-05-21T10:31:49.664Z,95448.41
2023-05-21T10:32:51.869Z,95446.16
2023-05-21T10:33:53.672Z,95449.44
2023-05-21T10:34:56.066Z,95451.72
2023-05-21T10:35:58.501Z,95448.91
2023-05-21T10:37:02.377Z,95452.13
2023-05-21T10:38:04.710Z,95452.13
2023-05-21T10:39:07.893Z,95457.97
2023-05-21T10:40:10.164Z,95453.31
2023-05-21T10:41:12.479Z,95455.78
2023-05-21T10:42:32.125Z,95446.22
2023-05-21T10:44:07.365Z,95443.53
2023-05-21T10:45:32.522Z,95443.25
2023-05-21T10:46:59.065Z,95450.09
2023-05-21T10:48:05.106Z,95434.91
2023-05-21T10:49:12.439Z,95440.06
2023-05-21T10:51:08.235Z,95447.19
2023-05-21T10:52:51.423Z,95446.84
2023-05-21T10:54:27.708Z,95447.63
2023-05-21T10:55:34.965Z,95443.91
2023-05-21T10:56:46.849Z,95447.94
2023-05-21T10:58:00.337Z,95447.16
2023-05-21T10:59:30.537Z,95443.31
2023-05-21T11:00:32.320Z,95440.94
2023-05-21T11:01:37.486Z,95444.28
2023-05-21T11:02:39.337Z,95449.09
2023-05-21T11:03:41.169Z,95442.69
2023-05-21T11:04:48.862Z,95446.09
2023-05-21T11:05:56.830Z,95454.81
2023-05-21T11:06:59.158Z,95441.97
2023-05-21T11:08:02.352Z,95440.88
2023-05-21T11:09:14.115Z,95451.16
2023-05-21T11:10:45.313Z,95444.28
2023-05-21T11:11:51.273Z,95440.91
2023-05-21T11:13:06.232Z,95441.78
2023-05-21T11:14:26.305Z,95441.91
2023-05-21T11:15:27.985Z,95450.56
2023-05-21T11:16:29.811Z,95435.66
2023-05-21T11:17:41.989Z,95449.13
2023-05-21T11:18:46.313Z,95447.16
2023-05-21T11:19:48.041Z,95445.50
2023-05-21T11:20:52.254Z,95449.03
2023-05-21T11:21:55.433Z,95447.16
2023-05-21T11:22:58.241Z,95441.66
2023-05-21T11:24:05.179Z,95450.91
2023-05-21T11:25:07.253Z,95455.28
2023-05-21T11:26:08.860Z,95453.16
2023-05-21T11:27:12.403Z,95449.53
2023-05-21T11:28:14.089Z,95453.38
2023-05-21T11:29:16.153Z,95453.47
2023-05-21T11:30:19.535Z,95450.88
2023-05-21T11:31:28.057Z,95448.97
2023-05-21T11:32:29.830Z,95450.78
2023-05-21T11:33:31.547Z,95446.09
2023-05-21T11:34:39.413Z,95452.72
2023-05-21T11:35:50.109Z,95451.63
2023-05-21T11:37:23.121Z,95450.59
2023-05-21T11:38:28.402Z,95440.00
2023-05-21T11:39:30.004Z,95437.00
2023-05-21T11:40:31.807Z,95435.34
2023-05-21T11:42:01.560Z,95439.53
2023-05-21T11:43:04.828Z,95434.56
2023-05-21T11:44:08.839Z,95440.69
2023-05-21T11:45:10.956Z,95437.69
2023-05-21T11:46:14.171Z,95449.78
2023-05-21T11:47:18.412Z,95441.38
2023-05-21T11:48:21.626Z,95441.56
2023-05-21T11:49:23.263Z,95449.81
2023-05-21T11:50:25.802Z,95447.00
2023-05-21T11:51:27.581Z,95442.47
2023-05-21T11:52:30.587Z,95443.50
2023-05-21T11:53:32.228Z,95443.28
2023-05-21T11:54:39.307Z,95442.81
2023-05-21T11:55:47.300Z,95452.63
2023-05-21T11:56:48.932Z,95446.66
2023-05-21T11:57:53.432Z,95446.03
2023-05-21T11:58:55.898Z,95448.13
2023-05-21T12:00:01.566Z,95443.78
2023-05-21T12:01:03.472Z,95451.59
2023-05-21T12:02:05.508Z,95452.19
2023-05-21T12:03:08.284Z,95443.06
2023-05-21T12:04:13.553Z,95451.38
2023-05-21T12:05:18.790Z,95441.91
2023-05-21T12:06:26.764Z,95454.69
2023-05-21T12:07:31.809Z,95451.75
2023-05-21T12:08:33.408Z,95443.50
2023-05-21T12:09:48.128Z,95460.31
2023-05-21T12:11:03.620Z,95451.63
2023-05-21T12:12:06.461Z,95456.34
2023-05-21T12:13:08.129Z,95443.28
2023-05-21T12:14:10.886Z,95453.53
2023-05-21T12:15:13.479Z,95441.06
2023-05-21T12:16:15.210Z,95449.00
2023-05-21T12:17:25.304Z,95443.84
2023-05-21T12:18:26.981Z,95448.09
2023-05-21T12:19:29.269Z,95456.34
2023-05-21T12:20:31.136Z,95446.25
2023-05-21T12:21:33.288Z,95458.06
2023-05-21T12:22:34.985Z,95457.13
2023-05-21T12:23:36.718Z,95454.00
2023-05-21T12:24:39.202Z,95459.97
2023-05-21T12:25:40.997Z,95447.00
2023-05-21T12:26:44.526Z,95447.88
2023-05-21T12:27:46.636Z,95450.13
2023-05-21T12:28:48.945Z,95453.19
2023-05-21T12:29:51.829Z,95449.50
2023-05-21T12:30:53.658Z,95459.94
2023-05-21T12:31:59.479Z,95450.06
2023-05-21T12:33:02.561Z,95444.25